Terminal Aerodrome Forecast
Issued by NWS Jackson, MS

Home | Current Version | Previous Version | Text Only | Print | Product List | Glossary On
Versions: 1 2 3 4 5 6 7 8 9 10 11 12 13 14 15 16
000
FTUS44 KJAN 241100
TAFGWO
TAF
KGWO 241120Z 2412/2512 00000KT P6SM SKC
     FM241600 19012G22KT P6SM SCT040 BKN250
     FM242200 20015G25KT P6SM VCTS BKN050CB
     FM250400 26015KT P6SM SCT050
     FM250900 28008KT P6SM SKC=

USA.gov is the U.S. government's official web portal to all federal, state and local government web resources and services.